createdAt,value
2022-11-27T00:01:36.773Z,9.65
2022-11-27T00:04:07.613Z,10.05
2022-11-27T00:06:36.076Z,8.93
2022-11-27T00:09:07.168Z,9.48
2022-11-27T00:11:35.034Z,9.25
2022-11-27T00:14:02.377Z,9.32
2022-11-27T00:16:29.851Z,9.55
2022-11-27T00:18:57.547Z,9.57
2022-11-27T00:21:30.341Z,9.50
2022-11-27T00:23:59.525Z,9.05
2022-11-27T00:26:27.735Z,9.27
2022-11-27T00:28:55.255Z,10.50
2022-11-27T00:31:29.380Z,9.40
2022-11-27T00:34:01.528Z,9.38
2022-11-27T00:36:30.374Z,9.30
2022-11-27T00:38:57.646Z,9.32
2022-11-27T00:41:29.303Z,9.15
2022-11-27T00:43:56.806Z,9.95
2022-11-27T00:46:28.744Z,8.55
2022-11-27T00:49:01.562Z,9.75
2022-11-27T00:51:30.073Z,9.63
2022-11-27T00:53:58.125Z,9.55
2022-11-27T00:56:32.565Z,9.18
2022-11-27T00:59:00.734Z,9.25
2022-11-27T01:01:33.883Z,9.52
2022-11-27T01:04:05.451Z,9.35
2022-11-27T01:06:33.042Z,10.05
2022-11-27T01:09:02.701Z,10.02
2022-11-27T01:11:33.846Z,9.65
2022-11-27T01:14:19.375Z,10.10
2022-11-27T01:16:46.901Z,9.93
2022-11-27T01:19:16.879Z,9.43
2022-11-27T01:21:44.916Z,8.48
2022-11-27T01:24:15.698Z,9.10
2022-11-27T01:26:43.656Z,10.05
2022-11-27T01:29:11.850Z,9.70
2022-11-27T01:31:39.383Z,8.93
2022-11-27T01:34:13.367Z,8.73
2022-11-27T01:36:43.371Z,9.40
2022-11-27T01:39:15.981Z,8.60
2022-11-27T01:41:46.976Z,9.50
2022-11-27T01:44:23.577Z,8.40
2022-11-27T01:47:25.570Z,9.40
2022-11-27T01:49:56.637Z,9.05
2022-11-27T01:52:32.337Z,8.98
2022-11-27T01:55:05.509Z,8.68
2022-11-27T01:57:42.730Z,8.68
2022-11-27T02:00:14.170Z,9.55
2022-11-27T02:02:42.883Z,9.43
2022-11-27T02:05:14.785Z,10.27
2022-11-27T02:07:42.183Z,9.52
2022-11-27T02:10:09.861Z,8.82
2022-11-27T02:12:48.109Z,9.05
2022-11-27T02:15:33.583Z,9.35
2022-11-27T02:18:18.570Z,9.60
2022-11-27T02:21:02.840Z,9.32
2022-11-27T02:23:57.413Z,9.45
2022-11-27T02:26:46.608Z,9.35
2022-11-27T02:29:16.142Z,10.32
2022-11-27T02:31:43.415Z,10.63
2022-11-27T02:34:22.655Z,10.63
2022-11-27T02:37:00.403Z,11.50
2022-11-27T02:40:03.401Z,11.07
2022-11-27T02:42:36.328Z,12.18
2022-11-27T02:45:17.077Z,11.43
2022-11-27T02:47:47.389Z,10.63
2022-11-27T02:50:20.881Z,9.38
2022-11-27T02:52:54.362Z,10.23
2022-11-27T02:55:28.857Z,9.52
2022-11-27T02:57:57.212Z,9.18
2022-11-27T03:00:24.710Z,8.77
2022-11-27T03:03:04.640Z,8.55
2022-11-27T03:05:38.531Z,9.10
2022-11-27T03:08:21.559Z,8.95
2022-11-27T03:11:05.044Z,8.82
2022-11-27T03:13:40.692Z,8.00
2022-11-27T03:16:15.126Z,8.48
2022-11-27T03:19:07.971Z,7.80
2022-11-27T03:21:41.167Z,8.32
2022-11-27T03:24:10.042Z,8.00
2022-11-27T03:26:39.183Z,7.70
2022-11-27T03:29:12.249Z,7.82
2022-11-27T03:31:42.660Z,8.07
2022-11-27T03:34:10.551Z,9.00
2022-11-27T03:36:37.808Z,9.40
2022-11-27T03:39:05.404Z,8.23
2022-11-27T03:42:09.922Z,8.48
2022-11-27T03:45:04.722Z,8.23
2022-11-27T03:47:58.935Z,8.43
2022-11-27T03:50:41.149Z,7.65
2022-11-27T03:53:17.367Z,7.68
2022-11-27T03:55:55.834Z,7.82
2022-11-27T03:58:50.348Z,8.82
2022-11-27T04:01:19.791Z,8.40
2022-11-27T04:03:47.112Z,7.95
2022-11-27T04:06:14.504Z,8.30
2022-11-27T04:08:42.533Z,8.65
2022-11-27T04:11:09.801Z,9.30
2022-11-27T04:13:37.192Z,9.15
2022-11-27T04:16:04.905Z,8.40
2022-11-27T04:18:34.320Z,8.70
2022-11-27T04:21:01.640Z,8.48
2022-11-27T04:23:28.888Z,9.02
2022-11-27T04:25:58.658Z,9.10
2022-11-27T04:28:25.946Z,9.10
2022-11-27T04:30:54.932Z,8.68
2022-11-27T04:33:23.040Z,8.93
2022-11-27T04:35:56.107Z,8.98
2022-11-27T04:38:23.404Z,7.95
2022-11-27T04:40:53.487Z,8.55
2022-11-27T04:43:23.462Z,9.18
2022-11-27T04:45:50.735Z,7.85
2022-11-27T04:48:18.033Z,7.35
2022-11-27T04:50:45.797Z,7.18
2022-11-27T04:53:13.177Z,7.40
2022-11-27T04:55:40.437Z,6.93
2022-11-27T04:58:07.714Z,7.88
2022-11-27T05:00:35.068Z,7.63
2022-11-27T05:03:02.413Z,7.18
2022-11-27T05:05:29.789Z,7.38
2022-11-27T05:07:57.180Z,7.60
2022-11-27T05:10:27.171Z,8.23
2022-11-27T05:12:56.812Z,8.20
2022-11-27T05:15:26.521Z,7.93
2022-11-27T05:17:53.787Z,8.23
2022-11-27T05:20:21.016Z,8.43
2022-11-27T05:22:50.442Z,8.75
2022-11-27T05:25:20.316Z,8.35
2022-11-27T05:27:52.129Z,8.70
2022-11-27T05:32:46.927Z,7.80
2022-11-27T05:35:14.256Z,8.95
2022-11-27T05:37:44.445Z,7.45
2022-11-27T05:40:12.046Z,7.03
2022-11-27T05:42:39.286Z,7.47
2022-11-27T05:45:09.765Z,7.35
2022-11-27T05:47:37.076Z,6.88
2022-11-27T05:50:04.798Z,7.57
2022-11-27T05:52:32.091Z,7.55
2022-11-27T05:55:02.314Z,7.57
2022-11-27T05:57:31.009Z,8.13
2022-11-27T05:59:59.131Z,8.23
2022-11-27T06:02:29.569Z,7.35
2022-11-27T06:04:57.063Z,7.07
2022-11-27T06:07:24.399Z,7.50
2022-11-27T06:09:51.822Z,7.30
2022-11-27T06:12:19.139Z,7.63
2022-11-27T06:14:48.986Z,7.90
2022-11-27T06:17:16.612Z,8.43
2022-11-27T06:19:43.910Z,9.13
2022-11-27T06:22:11.251Z,8.80
2022-11-27T06:24:38.743Z,7.78
2022-11-27T06:27:06.324Z,7.30
2022-11-27T06:29:33.595Z,8.00
2022-11-27T06:32:00.877Z,8.48
2022-11-27T06:34:28.317Z,8.10
2022-11-27T06:36:55.633Z,8.77
2022-11-27T06:39:22.889Z,8.40
2022-11-27T06:41:50.170Z,8.95
2022-11-27T06:44:17.423Z,8.45
2022-11-27T06:46:46.852Z,8.43
2022-11-27T06:49:16.533Z,9.02
2022-11-27T06:51:43.795Z,8.35
2022-11-27T06:54:11.077Z,8.57
2022-11-27T06:56:40.580Z,8.93
2022-11-27T06:59:09.979Z,9.63
2022-11-27T07:01:37.378Z,9.98
2022-11-27T07:04:04.894Z,10.52
2022-11-27T07:06:32.286Z,10.20
2022-11-27T07:08:59.562Z,10.15
2022-11-27T07:11:29.809Z,9.65
2022-11-27T07:13:59.261Z,9.75
2022-11-27T07:16:28.504Z,10.45
2022-11-27T07:19:07.030Z,10.63
2022-11-27T07:21:38.686Z,9.95
2022-11-27T07:24:06.540Z,10.98
2022-11-27T07:26:34.030Z,10.40
2022-11-27T07:29:01.441Z,10.73
2022-11-27T07:31:30.659Z,10.38
2022-11-27T07:33:58.785Z,11.00
2022-11-27T07:36:29.266Z,11.25
2022-11-27T07:38:58.747Z,11.27
2022-11-27T07:41:32.309Z,12.90
2022-11-27T07:44:01.332Z,14.00
2022-11-27T07:46:30.193Z,14.68
2022-11-27T07:48:58.172Z,14.55
2022-11-27T07:51:25.419Z,16.00
2022-11-27T07:53:55.225Z,16.50
2022-11-27T07:56:23.044Z,14.98
2022-11-27T07:58:50.507Z,14.98
2022-11-27T08:01:19.243Z,14.13
2022-11-27T08:03:47.128Z,14.57
2022-11-27T08:06:20.543Z,15.38
2022-11-27T08:08:48.249Z,15.77
2022-11-27T08:11:24.421Z,15.35
2022-11-27T08:13:57.718Z,15.77
2022-11-27T08:16:25.238Z,16.73
2022-11-27T08:18:52.844Z,16.25
2022-11-27T08:21:20.623Z,15.48
2022-11-27T08:23:48.216Z,15.18
2022-11-27T08:26:17.784Z,15.30
2022-11-27T08:28:45.239Z,14.77
2022-11-27T08:31:14.005Z,16.00
2022-11-27T08:33:41.767Z,15.32
2022-11-27T08:36:13.716Z,14.63
2022-11-27T08:38:48.003Z,16.13
2022-11-27T08:41:17.529Z,16.02
2022-11-27T08:43:45.107Z,16.42
2022-11-27T08:46:12.544Z,16.48
2022-11-27T08:48:42.561Z,16.65
2022-11-27T08:51:15.245Z,17.38
2022-11-27T08:53:45.457Z,16.13
2022-11-27T08:56:15.241Z,15.90
2022-11-27T08:58:43.501Z,17.73
2022-11-27T09:01:32.069Z,17.13
2022-11-27T09:04:01.986Z,16.88
2022-11-27T09:06:31.703Z,17.40
2022-11-27T09:09:03.879Z,16.73
2022-11-27T09:11:32.358Z,16.08
2022-11-27T09:14:00.781Z,16.23
2022-11-27T09:16:30.747Z,14.82
2022-11-27T09:18:58.824Z,14.65
2022-11-27T09:21:29.126Z,14.60
2022-11-27T09:24:00.854Z,15.57
2022-11-27T09:26:28.966Z,15.63
2022-11-27T09:28:58.334Z,15.48
2022-11-27T09:31:28.085Z,15.27
2022-11-27T09:33:55.458Z,15.32
2022-11-27T09:36:25.068Z,14.60
2022-11-27T09:38:56.075Z,15.50
2022-11-27T09:41:39.381Z,15.43
2022-11-27T09:44:23.554Z,13.45
2022-11-27T09:47:00.986Z,14.40
2022-11-27T09:49:35.517Z,14.93
2022-11-27T09:52:10.985Z,15.30
2022-11-27T09:54:47.992Z,14.48
2022-11-27T09:57:25.651Z,15.05
2022-11-27T09:59:54.768Z,16.10
2022-11-27T10:02:30.935Z,16.52
2022-11-27T10:05:15.843Z,16.73
2022-11-27T10:07:46.338Z,14.40
2022-11-27T10:10:34.624Z,13.75
2022-11-27T10:13:16.623Z,13.52
2022-11-27T10:18:46.609Z,12.32
2022-11-27T10:21:44.798Z,12.07
2022-11-27T10:24:36.744Z,13.63
2022-11-27T10:27:17.811Z,13.10
2022-11-27T10:29:55.235Z,14.30
2022-11-27T10:32:54.185Z,14.73
2022-11-27T10:35:28.865Z,14.23
2022-11-27T10:38:10.496Z,13.32
2022-11-27T10:46:48.588Z,10.90
2022-11-27T10:49:15.894Z,12.07
2022-11-27T10:51:45.990Z,12.25
2022-11-27T10:54:27.078Z,12.35
2022-11-27T10:57:17.348Z,12.63
2022-11-27T10:59:54.686Z,12.18
2022-11-27T11:02:28.366Z,11.88
2022-11-27T11:05:30.767Z,12.07
2022-11-27T11:08:01.123Z,12.38
2022-11-27T11:10:33.446Z,12.15
2022-11-27T11:13:27.982Z,11.77
2022-11-27T11:15:59.959Z,12.38
2022-11-27T11:18:30.227Z,12.18
2022-11-27T11:21:07.145Z,12.77
2022-11-27T11:23:40.387Z,12.68
2022-11-27T11:26:13.717Z,12.80
2022-11-27T11:28:52.316Z,12.27
2022-11-27T11:31:25.333Z,12.57
2022-11-27T11:34:05.051Z,11.20
2022-11-27T11:36:32.602Z,12.85
2022-11-27T11:39:00.173Z,12.13
2022-11-27T11:41:39.549Z,13.07
2022-11-27T11:44:20.289Z,12.57
2022-11-27T11:46:55.384Z,11.60
2022-11-27T11:49:25.867Z,11.93
2022-11-27T11:52:21.911Z,11.63
2022-11-27T11:55:20.018Z,11.38
2022-11-27T11:58:22.204Z,11.00
2022-11-27T12:03:41.813Z,11.90
2022-11-27T12:06:29.102Z,12.88
2022-11-27T12:09:08.585Z,12.60
2022-11-27T12:12:16.030Z,12.80
2022-11-27T12:15:05.793Z,13.57
2022-11-27T12:17:51.326Z,13.80
2022-11-27T12:20:35.275Z,13.98
2022-11-27T12:23:08.527Z,13.60
2022-11-27T12:25:52.423Z,14.10
2022-11-27T12:28:40.931Z,13.50
2022-11-27T12:31:29.386Z,13.80
2022-11-27T12:34:05.863Z,13.32
2022-11-27T12:36:55.234Z,13.52
2022-11-27T12:39:28.454Z,13.50
2022-11-27T12:42:08.957Z,14.10
2022-11-27T12:44:47.314Z,12.77
2022-11-27T12:47:26.840Z,14.00
2022-11-27T12:50:07.835Z,13.48
2022-11-27T12:52:44.565Z,13.57
2022-11-27T12:55:17.285Z,12.98
2022-11-27T12:58:05.822Z,12.82
2022-11-27T13:00:37.330Z,15.05
2022-11-27T13:03:13.406Z,14.00
2022-11-27T13:05:58.080Z,12.90
2022-11-27T13:09:02.159Z,13.80
2022-11-27T13:11:35.544Z,12.60
2022-11-27T13:14:20.352Z,14.60
2022-11-27T13:16:56.139Z,15.40
2022-11-27T13:19:52.949Z,15.85
2022-11-27T13:22:34.682Z,15.88
2022-11-27T13:25:03.601Z,16.15
2022-11-27T13:27:35.666Z,16.10
2022-11-27T13:30:05.501Z,16.38
2022-11-27T13:32:47.049Z,17.08
2022-11-27T13:35:27.850Z,15.25
2022-11-27T13:38:12.446Z,15.85
2022-11-27T13:40:41.910Z,15.93
2022-11-27T13:43:43.225Z,16.90
2022-11-27T13:46:21.588Z,17.00
2022-11-27T13:48:54.203Z,15.73
2022-11-27T13:51:39.436Z,15.55
2022-11-27T13:54:07.714Z,14.23
2022-11-27T13:56:35.295Z,14.00
2022-11-27T13:59:20.051Z,14.20
2022-11-27T14:02:02.559Z,14.45
2022-11-27T14:04:31.376Z,13.82
2022-11-27T14:07:11.702Z,14.68
2022-11-27T14:09:44.830Z,14.02
2022-11-27T14:12:22.394Z,14.50
2022-11-27T14:15:07.403Z,13.30
2022-11-27T14:17:46.314Z,14.02
2022-11-27T14:20:16.557Z,14.30
2022-11-27T14:23:09.823Z,13.45
2022-11-27T14:25:38.360Z,14.13
2022-11-27T14:28:27.172Z,13.52
2022-11-27T14:31:00.419Z,12.88
2022-11-27T14:33:31.279Z,14.55
2022-11-27T14:36:01.523Z,14.07
2022-11-27T14:38:30.853Z,12.90
2022-11-27T14:41:15.767Z,13.40
2022-11-27T14:43:45.543Z,14.27
2022-11-27T14:46:19.267Z,13.95
2022-11-27T14:48:49.874Z,15.30
2022-11-27T14:51:23.621Z,14.70
2022-11-27T14:53:59.342Z,14.32
2022-11-27T14:56:33.774Z,13.13
2022-11-27T14:59:02.124Z,14.23
2022-11-27T15:01:33.175Z,13.27
2022-11-27T15:04:03.894Z,13.27
2022-11-27T15:06:43.937Z,13.52
2022-11-27T15:09:31.639Z,13.57
2022-11-27T15:12:21.834Z,14.48
2022-11-27T15:15:02.544Z,13.63
2022-11-27T15:17:34.286Z,13.38
2022-11-27T15:22:33.425Z,12.98
2022-11-27T15:25:06.342Z,14.13
2022-11-27T15:27:48.121Z,13.45
2022-11-27T15:30:19.179Z,13.48
2022-11-27T15:32:51.674Z,13.75
2022-11-27T15:35:32.617Z,13.73
2022-11-27T15:38:04.649Z,15.85
2022-11-27T15:40:36.288Z,14.23
2022-11-27T15:43:13.994Z,15.57
2022-11-27T15:45:43.108Z,14.85
2022-11-27T15:48:21.126Z,14.55
2022-11-27T15:50:51.853Z,15.75
2022-11-27T15:53:21.971Z,15.52
2022-11-27T15:55:51.690Z,15.85
2022-11-27T15:58:21.105Z,17.15
2022-11-27T16:00:48.390Z,17.92
2022-11-27T16:03:15.720Z,18.38
2022-11-27T16:05:48.511Z,19.70
2022-11-27T16:08:16.286Z,19.15
2022-11-27T16:10:43.928Z,18.40
2022-11-27T16:13:13.529Z,19.25
2022-11-27T16:15:40.835Z,20.00
2022-11-27T16:18:08.200Z,17.65
2022-11-27T16:20:37.541Z,18.85
2022-11-27T16:23:04.887Z,17.98
2022-11-27T16:25:32.190Z,18.27
2022-11-27T16:28:02.782Z,19.17
2022-11-27T16:30:32.958Z,18.50
2022-11-27T16:33:00.323Z,17.52
2022-11-27T16:35:27.908Z,17.25
2022-11-27T16:37:57.630Z,18.10
2022-11-27T16:40:25.028Z,16.92
2022-11-27T16:42:52.326Z,17.58
2022-11-27T16:45:20.002Z,16.60
2022-11-27T16:47:47.355Z,16.40
2022-11-27T16:50:14.807Z,15.98
2022-11-27T16:52:42.122Z,15.63
2022-11-27T16:55:11.835Z,15.68
2022-11-27T16:57:39.147Z,16.42
2022-11-27T17:00:07.095Z,15.43
2022-11-27T17:02:38.997Z,15.73
2022-11-27T17:05:07.034Z,15.90
2022-11-27T17:07:37.667Z,15.68
2022-11-27T17:10:05.425Z,15.90
2022-11-27T17:12:35.988Z,15.95
2022-11-27T17:15:04.544Z,15.75
2022-11-27T17:17:39.874Z,16.50
2022-11-27T17:20:08.395Z,16.63
2022-11-27T17:22:35.679Z,16.40
2022-11-27T17:25:05.487Z,16.80
2022-11-27T17:27:35.347Z,16.38
2022-11-27T17:30:04.763Z,16.23
2022-11-27T17:32:32.194Z,17.15
2022-11-27T17:34:59.538Z,16.85
2022-11-27T17:37:26.900Z,16.95
2022-11-27T17:39:58.810Z,16.20
2022-11-27T17:42:28.240Z,17.35
2022-11-27T17:44:56.217Z,17.08
2022-11-27T17:47:23.570Z,17.77
2022-11-27T17:49:53.318Z,17.10
2022-11-27T17:52:22.944Z,18.08
2022-11-27T17:54:50.214Z,18.65
2022-11-27T17:57:17.607Z,17.85
2022-11-27T17:59:44.854Z,17.58
2022-11-27T18:02:14.509Z,17.35
2022-11-27T18:04:41.868Z,17.98
2022-11-27T18:07:09.226Z,18.42
2022-11-27T18:09:36.642Z,17.52
2022-11-27T18:12:09.432Z,18.48
2022-11-27T18:14:39.288Z,18.02
2022-11-27T18:17:07.129Z,17.98
2022-11-27T18:19:34.463Z,18.88
2022-11-27T18:22:01.748Z,17.58
2022-11-27T18:24:29.020Z,18.73
2022-11-27T18:27:11.786Z,19.23
2022-11-27T18:29:42.402Z,18.15
2022-11-27T18:32:11.677Z,19.73
2022-11-27T18:34:39.494Z,21.50
2022-11-27T18:37:07.397Z,20.95
2022-11-27T18:39:35.458Z,20.30
2022-11-27T18:42:04.973Z,20.65
2022-11-27T18:44:33.438Z,20.17
2022-11-27T18:47:00.906Z,21.02
2022-11-27T18:49:28.185Z,21.17
2022-11-27T18:51:56.470Z,20.70
2022-11-27T18:54:26.709Z,21.13
2022-11-27T18:56:53.960Z,22.00
2022-11-27T18:59:21.523Z,22.13
2022-11-27T19:01:49.049Z,23.95
2022-11-27T19:04:18.634Z,22.45
2022-11-27T19:06:45.959Z,23.42
2022-11-27T19:09:14.095Z,22.70
2022-11-27T19:11:43.979Z,22.85
2022-11-27T19:14:11.401Z,25.30
2022-11-27T19:16:46.471Z,26.02
2022-11-27T19:22:07.175Z,24.70
2022-11-27T19:24:34.553Z,22.50
2022-11-27T19:27:04.351Z,22.60
2022-11-27T19:29:31.631Z,21.60
2022-11-27T19:32:01.192Z,22.67
2022-11-27T19:34:28.940Z,24.08
2022-11-27T19:36:58.450Z,22.30
2022-11-27T19:39:28.815Z,24.95
2022-11-27T19:41:57.894Z,27.42
2022-11-27T19:44:25.770Z,27.85
2022-11-27T19:46:53.076Z,28.08
2022-11-27T19:49:21.480Z,28.23
2022-11-27T19:51:49.792Z,27.45
2022-11-27T19:54:19.220Z,27.13
2022-11-27T19:56:48.996Z,25.48
2022-11-27T19:59:24.228Z,23.35
2022-11-27T20:01:55.650Z,22.52
2022-11-27T20:04:22.995Z,22.42
2022-11-27T20:06:52.652Z,21.55
2022-11-27T20:09:20.005Z,21.95
2022-11-27T20:11:47.322Z,20.83
2022-11-27T20:14:14.970Z,21.13
2022-11-27T20:16:42.397Z,21.90
2022-11-27T20:19:09.735Z,21.42
2022-11-27T20:21:40.134Z,20.52
2022-11-27T20:24:10.191Z,20.45
2022-11-27T20:26:42.438Z,22.00
2022-11-27T20:29:10.765Z,19.65
2022-11-27T20:31:39.498Z,22.27
2022-11-27T20:34:08.351Z,21.00
2022-11-27T20:36:39.049Z,21.80
2022-11-27T20:39:06.932Z,24.73
2022-11-27T20:41:34.242Z,23.65
2022-11-27T20:44:04.594Z,26.10
2022-11-27T20:46:33.297Z,24.15
2022-11-27T20:49:00.827Z,22.65
2022-11-27T20:51:33.794Z,26.05
2022-11-27T20:54:02.622Z,24.80
2022-11-27T20:56:30.973Z,24.48
2022-11-27T20:59:00.911Z,25.13
2022-11-27T21:01:31.938Z,26.10
2022-11-27T21:04:04.527Z,26.90
2022-11-27T21:06:38.043Z,25.75
2022-11-27T21:09:10.292Z,25.17
2022-11-27T21:11:37.724Z,24.83
2022-11-27T21:14:08.079Z,23.20
2022-11-27T21:16:38.490Z,22.60
2022-11-27T21:19:12.744Z,21.27
2022-11-27T21:21:40.080Z,18.58
2022-11-27T21:24:07.678Z,17.40
2022-11-27T21:26:37.510Z,17.00
2022-11-27T21:29:04.849Z,16.95
2022-11-27T21:31:37.304Z,18.33
2022-11-27T21:34:10.337Z,18.10
2022-11-27T21:36:38.489Z,19.33
2022-11-27T21:39:08.792Z,21.33
2022-11-27T21:41:36.659Z,22.88
2022-11-27T21:44:04.597Z,24.27
2022-11-27T21:46:34.998Z,24.15
2022-11-27T21:49:02.313Z,23.85
2022-11-27T21:51:30.293Z,24.45
2022-11-27T21:53:58.973Z,22.85
2022-11-27T21:56:28.690Z,23.52
2022-11-27T21:58:56.431Z,23.45
2022-11-27T22:01:25.007Z,20.77
2022-11-27T22:03:54.714Z,19.20
2022-11-27T22:06:24.734Z,16.15
2022-11-27T22:08:53.986Z,14.75
2022-11-27T22:11:26.759Z,13.10
2022-11-27T22:14:06.065Z,14.07
2022-11-27T22:16:40.008Z,13.68
2022-11-27T22:19:11.939Z,13.65
2022-11-27T22:21:41.426Z,13.43
2022-11-27T22:24:17.957Z,13.88
2022-11-27T22:26:46.212Z,14.35
2022-11-27T22:29:13.476Z,13.77
2022-11-27T22:31:40.767Z,14.55
2022-11-27T22:34:08.173Z,14.88
2022-11-27T22:36:35.722Z,14.95
2022-11-27T22:39:08.862Z,16.27
2022-11-27T22:41:38.935Z,16.70
2022-11-27T22:44:14.465Z,16.83
2022-11-27T22:46:42.533Z,17.40
2022-11-27T22:49:11.724Z,16.13
2022-11-27T22:51:42.962Z,15.77
2022-11-27T22:54:25.392Z,15.23
2022-11-27T22:56:52.878Z,15.38
2022-11-27T22:59:37.865Z,16.42
2022-11-27T23:02:05.850Z,16.05
2022-11-27T23:04:34.423Z,15.00
2022-11-27T23:07:01.754Z,13.77
2022-11-27T23:09:31.780Z,15.43
2022-11-27T23:12:01.314Z,13.93
2022-11-27T23:14:28.695Z,12.52
2022-11-27T23:16:56.079Z,13.15
2022-11-27T23:19:25.937Z,12.95
2022-11-27T23:21:55.381Z,12.88
2022-11-27T23:24:23.037Z,12.77
2022-11-27T23:26:52.782Z,13.20
2022-11-27T23:29:20.148Z,13.63
2022-11-27T23:31:47.515Z,13.70
2022-11-27T23:34:15.996Z,12.82
2022-11-27T23:36:43.512Z,13.23
2022-11-27T23:39:16.924Z,12.05
2022-11-27T23:41:44.422Z,13.23
2022-11-27T23:44:11.785Z,12.93
2022-11-27T23:46:39.139Z,11.43
2022-11-27T23:49:06.445Z,11.63
2022-11-27T23:51:34.055Z,11.38
2022-11-27T23:54:01.722Z,11.02
2022-11-27T23:56:34.959Z,10.52
2022-11-27T23:59:05.519Z,11.25
